Terminal Aerodrome Forecast
Issued by NWS

Home | Current Version | Previous Version | Text Only | Print | Product List | Glossary On
Versions: 1 2 3 4 5 6 7 8 9 10 11 12 13 14 15 16 17 18 19 20 21
000
FTUS43 KLSX 152100 AAA
TAFSUS
TAF AMD
KSUS 152114Z 1521/1618 15012G22KT P6SM SCT010 BKN030
      TEMPO 1522/1524 4SM -SHRA BR
     FM160000 20012G22KT P6SM VCSH BKN025
     FM160200 25014G24KT P6SM OVC015
     FM161200 29015G25KT P6SM OVC015=

USA.gov is the U.S. government's official web portal to all federal, state and local government web resources and services.